Time;durP1;ratioP1;P1;durP2;ratioP2;P2;SDS_P1;SDS_P2;PMS_P1;PMS_P2;Temp;Humidity;BMP_temperature;BMP_pressure;BME280_temperature;BME280_humidity;BME280_pressure;Samples;Min_cycle;Max_cycle;Signal;HPM_P1;HPM_P2
2024/03/21 00:00:20;;;;;;;12.98;5.10;;;24.80;99.90;;;;;;5077691;28;20028;-53
2024/03/21 00:02:47;;;;;;;10.65;5.10;;;24.70;99.90;;;;;;5073967;28;20040;-53
2024/03/21 00:05:17;;;;;;;9.48;5.15;;;24.80;99.90;;;;;;5077866;28;20059;-53
2024/03/21 00:07:46;;;;;;;10.52;5.22;;;24.70;99.90;;;;;;5077406;28;20047;-52
2024/03/21 00:10:21;;;;;;;10.30;5.28;;;24.70;99.90;;;;;;5077540;28;20046;-53
2024/03/21 00:12:48;;;;;;;9.02;4.55;;;24.70;99.90;;;;;;5077725;28;20047;-52
2024/03/21 00:15:15;;;;;;;8.48;4.72;;;24.70;99.90;;;;;;5077785;28;20064;-53
2024/03/21 00:17:42;;;;;;;9.00;5.33;;;24.70;99.90;;;;;;5077387;28;20050;-53
2024/03/21 00:20:10;;;;;;;10.60;5.22;;;24.70;99.90;;;;;;5075276;28;20070;-53
2024/03/21 00:22:40;;;;;;;7.13;4.65;;;24.70;99.90;;;;;;5078220;28;20020;-53
2024/03/21 00:25:08;;;;;;;12.85;5.07;;;24.70;99.90;;;;;;5077524;28;20037;-53
2024/03/21 00:27:35;;;;;;;8.15;4.78;;;24.70;99.90;;;;;;5078056;28;20016;-53
2024/03/21 00:30:02;;;;;;;7.28;4.82;;;24.70;99.90;;;;;;5073449;28;20035;-51
2024/03/21 00:32:28;;;;;;;6.95;4.35;;;24.70;99.90;;;;;;5074192;28;20036;-52
2024/03/21 00:34:54;;;;;;;11.13;4.45;;;24.70;99.90;;;;;;5056411;28;20056;-52
2024/03/21 00:37:21;;;;;;;10.30;5.30;;;24.70;99.90;;;;;;5056615;28;20017;-51
2024/03/21 00:39:48;;;;;;;7.25;4.32;;;24.70;99.90;;;;;;5055277;28;20052;-52
2024/03/21 00:42:15;;;;;;;7.18;3.80;;;24.70;99.90;;;;;;5068881;28;20032;-52
2024/03/21 00:44:41;;;;;;;8.52;4.78;;;24.70;99.90;;;;;;5074551;28;20016;-53
2024/03/21 00:47:07;;;;;;;9.07;4.45;;;24.70;99.90;;;;;;5073884;28;20081;-52
2024/03/21 00:49:34;;;;;;;12.57;5.15;;;24.70;99.90;;;;;;5074468;28;20024;-53
2024/03/21 00:52:00;;;;;;;7.60;4.35;;;24.70;99.90;;;;;;5074018;28;20417;-53
2024/03/21 00:54:26;;;;;;;9.63;4.10;;;24.70;99.90;;;;;;5073798;28;20028;-53
2024/03/21 00:56:52;;;;;;;6.22;4.05;;;24.70;99.90;;;;;;5074050;28;20365;-53
2024/03/21 00:59:19;;;;;;;9.93;4.22;;;24.70;99.90;;;;;;5061211;28;20032;-53
2024/03/21 01:01:45;;;;;;;8.55;3.83;;;24.70;99.90;;;;;;5067530;28;20041;-52
2024/03/21 01:04:11;;;;;;;7.75;4.63;;;24.70;99.90;;;;;;5069517;28;20408;-52
2024/03/21 01:06:37;;;;;;;9.13;3.78;;;24.70;99.90;;;;;;5065121;28;20104;-53
2024/03/21 01:09:03;;;;;;;10.13;4.60;;;24.70;99.90;;;;;;5073367;28;20017;-52
2024/03/21 01:11:28;;;;;;;9.57;4.65;;;24.70;99.90;;;;;;5073997;28;20380;-53
2024/03/21 01:13:54;;;;;;;7.25;3.70;;;24.70;99.90;;;;;;5073540;28;20465;-52
2024/03/21 01:16:20;;;;;;;6.55;3.67;;;24.70;99.90;;;;;;5073438;28;20028;-53
2024/03/21 01:18:46;;;;;;;7.53;3.90;;;24.70;99.90;;;;;;5073495;28;20020;-53
2024/03/21 01:21:15;;;;;;;8.07;3.40;;;24.70;99.90;;;;;;5073686;28;20480;-52
2024/03/21 01:23:40;;;;;;;10.30;4.20;;;24.70;99.90;;;;;;5073265;28;20135;-52
2024/03/21 01:26:06;;;;;;;10.02;3.92;;;24.70;99.90;;;;;;5073991;28;20021;-53
2024/03/21 01:28:32;;;;;;;8.77;3.92;;;24.60;99.90;;;;;;5073429;28;20117;-52
2024/03/21 01:31:14;;;;;;;11.98;4.72;;;24.60;99.90;;;;;;5073033;28;20017;-53
2024/03/21 01:33:43;;;;;;;6.28;3.72;;;24.60;99.90;;;;;;5062028;28;20099;-53
2024/03/21 01:36:12;;;;;;;8.38;3.88;;;24.60;99.90;;;;;;5073525;28;20021;-53
2024/03/21 01:38:38;;;;;;;10.25;4.60;;;24.60;99.90;;;;;;5072692;28;20031;-53
2024/03/21 01:41:06;;;;;;;6.65;3.92;;;24.60;99.90;;;;;;5073176;28;20427;-53
2024/03/21 01:43:32;;;;;;;8.45;4.07;;;24.60;99.90;;;;;;5073152;28;20090;-55
2024/03/21 01:46:14;;;;;;;7.18;4.20;;;24.60;99.90;;;;;;5072964;28;20028;-55
2024/03/21 01:48:42;;;;;;;5.97;3.67;;;24.60;99.90;;;;;;5073113;28;20414;-54
2024/03/21 01:51:08;;;;;;;;;;;24.60;99.90;;;;;;5039243;28;20133;-52
2024/03/21 01:53:35;;;;;;;5.05;3.08;;;24.60;99.90;;;;;;5072446;28;19926;-53
2024/03/21 01:56:02;;;;;;;5.93;3.60;;;24.60;99.90;;;;;;5072912;28;20108;-53
2024/03/21 01:58:27;;;;;;;5.82;3.55;;;24.60;99.90;;;;;;5073061;28;20025;-54
2024/03/21 02:00:54;;;;;;;8.50;3.80;;;24.60;99.90;;;;;;5086413;23;20393;-48
2024/03/21 02:03:20;;;;;;;7.78;3.92;;;24.60;99.90;;;;;;5093224;28;20024;-46
2024/03/21 02:05:46;;;;;;;5.78;3.45;;;24.60;99.90;;;;;;5093170;28;20036;-48
2024/03/21 02:08:13;;;;;;;8.18;3.50;;;24.60;99.90;;;;;;5092827;28;20024;-47
2024/03/21 02:10:38;;;;;;;7.10;3.10;;;24.60;99.90;;;;;;5093082;28;20020;-48
2024/03/21 02:13:06;;;;;;;5.90;3.28;;;24.60;99.90;;;;;;5084313;28;20016;-47
2024/03/21 02:15:32;;;;;;;6.45;3.55;;;24.60;99.90;;;;;;5089189;28;20308;-46
2024/03/21 02:17:59;;;;;;;6.03;3.28;;;24.60;99.90;;;;;;5079621;28;20430;-46
2024/03/21 02:20:25;;;;;;;5.10;2.97;;;24.60;99.90;;;;;;5076040;28;20016;-47
2024/03/21 02:22:50;;;;;;;7.57;4.20;;;24.60;99.90;;;;;;5091359;28;20367;-46
2024/03/21 02:25:16;;;;;;;7.75;3.83;;;24.60;99.90;;;;;;5090619;28;20051;-47
2024/03/21 02:27:42;;;;;;;6.00;3.17;;;24.50;99.90;;;;;;5075917;28;20420;-47
2024/03/21 02:30:10;;;;;;;5.93;3.25;;;24.50;99.90;;;;;;5087483;28;20043;-48
2024/03/21 02:32:37;;;;;;;10.55;3.45;;;24.50;99.90;;;;;;5091966;28;20023;-46
2024/03/21 02:35:04;;;;;;;7.80;3.55;;;24.50;99.90;;;;;;5071092;28;20419;-46
2024/03/21 02:37:30;;;;;;;8.10;3.80;;;24.50;99.90;;;;;;5073940;28;20427;-47
2024/03/21 02:39:56;;;;;;;7.57;3.05;;;24.50;99.90;;;;;;5072721;28;20115;-47
2024/03/21 02:42:24;;;;;;;8.80;3.67;;;24.50;99.90;;;;;;5078939;28;20020;-48
2024/03/21 02:44:50;;;;;;;7.35;3.58;;;24.50;99.90;;;;;;5092422;28;20070;-47
2024/03/21 02:47:18;;;;;;;7.20;3.50;;;24.50;99.90;;;;;;5085623;28;20063;-47
2024/03/21 02:49:43;;;;;;;9.45;3.40;;;24.50;99.90;;;;;;5087554;28;20347;-46
2024/03/21 02:52:09;;;;;;;6.82;4.13;;;24.50;99.90;;;;;;5090607;28;20115;-45
2024/03/21 02:54:36;;;;;;;6.45;4.05;;;24.40;99.90;;;;;;5085162;28;20036;-47
2024/03/21 02:57:09;;;;;;;4.47;2.85;;;24.50;99.90;;;;;;5092186;28;20024;-46
2024/03/21 02:59:35;;;;;;;3.58;2.70;;;24.50;99.90;;;;;;5092386;28;20028;-47
2024/03/21 03:02:03;;;;;;;5.93;3.58;;;24.50;99.90;;;;;;5078453;22;20052;-53
2024/03/21 03:04:30;;;;;;;8.38;3.40;;;24.40;99.90;;;;;;5052200;28;20373;-53
2024/03/21 03:06:56;;;;;;;7.80;3.22;;;24.40;99.90;;;;;;5051763;28;20033;-53
2024/03/21 03:09:21;;;;;;;8.10;3.67;;;24.40;99.90;;;;;;5051530;28;20079;-52
2024/03/21 03:11:47;;;;;;;4.60;3.00;;;24.40;99.90;;;;;;5051761;28;20021;-53
2024/03/21 03:14:13;;;;;;;7.00;3.47;;;24.40;99.90;;;;;;5050595;28;20045;-52
2024/03/21 03:16:39;;;;;;;4.63;3.25;;;24.40;99.90;;;;;;5051597;28;20090;-53
2024/03/21 03:19:06;;;;;;;7.07;4.03;;;24.40;99.90;;;;;;5050997;28;20029;-52
2024/03/21 03:21:31;;;;;;;5.73;3.83;;;24.40;99.90;;;;;;5051272;28;20028;-53
2024/03/21 03:23:57;;;;;;;6.57;3.22;;;24.40;99.90;;;;;;5033968;28;20465;-53
2024/03/21 03:26:23;;;;;;;5.47;3.47;;;24.40;99.90;;;;;;5051829;28;20032;-54
2024/03/21 03:28:50;;;;;;;6.38;3.75;;;24.40;99.90;;;;;;5051835;28;20504;-54
2024/03/21 03:31:16;;;;;;;4.97;3.47;;;24.40;99.90;;;;;;5051413;28;20134;-53
2024/03/21 03:36:27;;;;;;;6.53;3.65;;;24.30;99.90;;;;;;5051519;28;20385;-53
2024/03/21 03:38:53;;;;;;;6.60;3.58;;;24.30;99.90;;;;;;5051648;28;20107;-53
2024/03/21 03:41:19;;;;;;;6.35;3.60;;;24.30;99.90;;;;;;5051315;28;20029;-54
2024/03/21 03:43:45;;;;;;;5.95;3.60;;;24.30;99.90;;;;;;5050601;28;20456;-55
2024/03/21 03:46:11;;;;;;;6.40;3.70;;;24.30;99.90;;;;;;5050763;28;20040;-54
2024/03/21 03:48:37;;;;;;;5.93;3.75;;;24.20;99.90;;;;;;5050454;28;20021;-54
2024/03/21 03:51:03;;;;;;;7.60;3.42;;;24.20;99.90;;;;;;5051765;28;20099;-53
2024/03/21 03:53:29;;;;;;;5.65;3.47;;;24.30;99.90;;;;;;5051778;28;20112;-53
2024/03/21 03:55:55;;;;;;;9.18;4.13;;;24.20;99.90;;;;;;5051951;28;20033;-53
2024/03/21 03:58:21;;;;;;;7.18;3.40;;;24.20;99.90;;;;;;5033606;28;20048;-54
2024/03/21 04:01:01;;;;;;;5.35;3.45;;;24.20;99.90;;;;;;5045208;23;21403;-46
2024/03/21 04:03:28;;;;;;;7.40;3.90;;;24.20;99.90;;;;;;5051745;28;20033;-46
2024/03/21 04:06:02;;;;;;;9.55;4.00;;;24.20;99.90;;;;;;5036138;28;20025;-46
2024/03/21 04:08:28;;;;;;;6.95;3.47;;;24.20;99.90;;;;;;5055615;28;20067;-46
2024/03/21 04:10:58;;;;;;;5.78;3.10;;;24.20;99.90;;;;;;5055373;28;20049;-46
2024/03/21 04:13:24;;;;;;;7.63;3.58;;;24.20;99.90;;;;;;5055255;28;20025;-45
2024/03/21 04:15:55;;;;;;;7.68;3.78;;;24.20;99.90;;;;;;5055109;28;20045;-46
2024/03/21 04:18:22;;;;;;;10.25;3.67;;;24.20;99.90;;;;;;5054948;28;20131;-46
2024/03/21 04:20:52;;;;;;;4.88;3.40;;;24.20;99.90;;;;;;5055289;28;20025;-46
2024/03/21 04:23:18;;;;;;;5.88;3.20;;;24.10;99.90;;;;;;5037240;28;20111;-46
2024/03/21 04:25:44;;;;;;;6.63;3.42;;;24.10;99.90;;;;;;5055109;28;20017;-46
2024/03/21 04:28:10;;;;;;;5.15;3.20;;;24.10;99.90;;;;;;5054948;28;20032;-45
2024/03/21 04:30:38;;;;;;;5.72;3.22;;;24.10;99.90;;;;;;5054879;28;20481;-46
2024/03/21 04:33:04;;;;;;;4.70;3.30;;;24.10;99.90;;;;;;5054960;28;20031;-46
2024/03/21 04:35:32;;;;;;;6.30;3.85;;;24.10;99.90;;;;;;5055041;28;20112;-46
2024/03/21 04:37:59;;;;;;;6.60;3.28;;;24.10;99.90;;;;;;5036880;28;20111;-46
2024/03/21 04:40:25;;;;;;;6.50;3.72;;;24.10;99.90;;;;;;5054832;28;20444;-46
2024/03/21 04:42:51;;;;;;;8.32;3.85;;;24.10;99.90;;;;;;5054797;28;20049;-46
2024/03/21 04:45:20;;;;;;;5.45;3.13;;;24.00;99.90;;;;;;5054727;28;20055;-46
2024/03/21 04:47:46;;;;;;;6.97;2.88;;;24.10;99.90;;;;;;5036595;28;20023;-46
2024/03/21 04:50:12;;;;;;;5.30;3.00;;;24.00;99.90;;;;;;5036692;28;20063;-46
2024/03/21 04:52:37;;;;;;;5.30;3.10;;;24.00;99.90;;;;;;5050457;28;20013;-47
2024/03/21 04:55:04;;;;;;;6.80;3.15;;;24.00;99.90;;;;;;5033278;28;20520;-46
2024/03/21 04:57:30;;;;;;;7.32;4.50;;;24.00;99.90;;;;;;5032896;28;20048;-46
2024/03/21 04:59:56;;;;;;;6.78;3.42;;;24.00;99.90;;;;;;5032954;28;20060;-46
2024/03/21 05:02:22;;;;;;;6.90;3.08;;;24.00;99.90;;;;;;5032577;28;20084;-45
2024/03/21 05:04:49;;;;;;;4.72;3.10;;;24.00;99.90;;;;;;5034361;28;20064;-45
2024/03/21 05:07:15;;;;;;;4.45;2.92;;;24.00;99.90;;;;;;5034338;28;20018;-47
2024/03/21 05:09:41;;;;;;;6.47;3.60;;;24.00;99.90;;;;;;5034361;28;20033;-45
2024/03/21 05:12:07;;;;;;;4.30;2.92;;;24.00;99.90;;;;;;5034506;28;20068;-46
2024/03/21 05:14:34;;;;;;;5.28;3.88;;;23.90;99.90;;;;;;5034302;28;20042;-47
2024/03/21 05:17:01;;;;;;;5.95;3.30;;;24.00;99.90;;;;;;5033847;28;20374;-46
2024/03/21 05:19:28;;;;;;;5.13;3.30;;;23.90;99.90;;;;;;5034128;28;20029;-46
2024/03/21 05:21:54;;;;;;;3.60;2.95;;;24.00;99.90;;;;;;5034167;28;20033;-46
2024/03/21 05:24:19;;;;;;;5.85;2.88;;;24.00;99.90;;;;;;5034043;28;20468;-46
2024/03/21 05:26:45;;;;;;;6.43;3.50;;;23.90;99.90;;;;;;5033932;28;20381;-46
2024/03/21 05:29:11;;;;;;;4.80;3.10;;;23.90;99.90;;;;;;5033865;28;20022;-46
2024/03/21 05:31:37;;;;;;;8.60;3.33;;;23.90;99.90;;;;;;5033578;28;20030;-46
2024/03/21 05:34:03;;;;;;;5.60;3.60;;;23.90;99.90;;;;;;5033839;28;20029;-46
2024/03/21 05:36:29;;;;;;;5.28;2.50;;;23.90;99.90;;;;;;5016076;28;20091;-46
2024/03/21 05:38:56;;;;;;;6.10;2.95;;;23.90;99.90;;;;;;5033694;28;20033;-46
2024/03/21 05:41:22;;;;;;;5.60;3.55;;;23.90;99.90;;;;;;5033507;28;20037;-45
2024/03/21 05:43:47;;;;;;;8.45;3.50;;;23.90;99.90;;;;;;5033390;28;20030;-45
2024/03/21 05:46:13;;;;;;;5.18;2.60;;;23.90;99.90;;;;;;5032318;28;20030;-47
2024/03/21 05:48:40;;;;;;;7.18;3.50;;;23.90;99.90;;;;;;5033683;28;20029;-47
2024/03/21 05:51:06;;;;;;;9.00;3.25;;;23.90;99.90;;;;;;5033521;28;20033;-47
2024/03/21 05:53:32;;;;;;;6.18;3.22;;;23.90;99.90;;;;;;5033514;28;20079;-46
2024/03/21 05:56:05;;;;;;;6.32;3.70;;;23.80;99.90;;;;;;5033235;28;20037;-47
2024/03/21 05:58:32;;;;;;;7.18;3.00;;;23.80;99.90;;;;;;5033682;28;20037;-46
2024/03/21 06:01:07;;;;;;;7.10;3.30;;;23.80;99.90;;;;;;5015436;28;20052;-47
2024/03/21 06:03:34;;;;;;;6.45;3.05;;;23.80;99.90;;;;;;5033504;28;20052;-46
2024/03/21 06:06:00;;;;;;;6.22;3.08;;;23.80;99.90;;;;;;5033276;28;20362;-47
2024/03/21 06:08:27;;;;;;;4.43;2.90;;;23.80;99.90;;;;;;5033055;28;20036;-46
2024/03/21 06:10:53;;;;;;;3.75;2.65;;;23.80;99.90;;;;;;5033080;28;20025;-46
2024/03/21 06:13:20;;;;;;;6.03;3.83;;;23.80;99.90;;;;;;5033027;28;20022;-47
2024/03/21 06:15:45;;;;;;;6.40;2.90;;;23.80;99.90;;;;;;5015233;28;20033;-46
2024/03/21 06:18:11;;;;;;;5.55;3.17;;;23.80;99.90;;;;;;5031589;28;20029;-46
2024/03/21 06:20:38;;;;;;;5.63;3.25;;;23.80;99.90;;;;;;5015351;28;20080;-47
2024/03/21 06:23:04;;;;;;;5.22;3.10;;;23.80;99.90;;;;;;5033287;28;20500;-48
2024/03/21 06:25:30;;;;;;;6.18;3.13;;;23.80;99.90;;;;;;5032848;28;20033;-47
2024/03/21 06:27:56;;;;;;;6.03;3.25;;;23.80;99.90;;;;;;5031935;28;20032;-47
2024/03/21 06:30:21;;;;;;;6.60;3.30;;;23.80;99.90;;;;;;5032814;28;20516;-47
2024/03/21 06:32:47;;;;;;;6.07;3.30;;;23.70;99.90;;;;;;5032744;28;20492;-46
2024/03/21 06:35:14;;;;;;;4.25;2.97;;;23.70;99.90;;;;;;5031304;28;20040;-47
2024/03/21 06:37:40;;;;;;;5.22;2.75;;;23.70;99.90;;;;;;5031195;28;20586;-47
2024/03/21 06:40:08;;;;;;;5.75;3.38;;;23.70;99.90;;;;;;5032696;28;20105;-47
2024/03/21 06:42:34;;;;;;;5.47;3.20;;;23.80;99.90;;;;;;5032595;28;20025;-47
2024/03/21 06:45:01;;;;;;;8.88;3.53;;;23.70;99.90;;;;;;5032463;28;20071;-47
2024/03/21 06:47:27;;;;;;;6.80;3.58;;;23.70;99.90;;;;;;5014603;28;20647;-46
2024/03/21 06:49:56;;;;;;;8.82;3.53;;;23.70;99.90;;;;;;5030951;28;20180;-46
2024/03/21 06:52:22;;;;;;;6.90;3.90;;;23.70;99.90;;;;;;5032482;28;20029;-46
2024/03/21 06:54:48;;;;;;;6.85;3.53;;;23.70;99.90;;;;;;5032062;28;20490;-47
2024/03/21 06:57:14;;;;;;;6.32;3.33;;;23.70;99.90;;;;;;5032234;28;20120;-46
2024/03/21 06:59:39;;;;;;;4.63;2.83;;;23.70;99.90;;;;;;5032251;28;20083;-46
2024/03/21 07:02:06;;;;;;;8.75;3.05;;;23.70;99.90;;;;;;5032259;28;20037;-46
2024/03/21 07:04:32;;;;;;;5.72;3.08;;;23.70;99.90;;;;;;5032248;28;20033;-48
2024/03/21 07:06:58;;;;;;;7.07;3.17;;;23.70;99.90;;;;;;5032173;28;20388;-48
2024/03/21 07:09:24;;;;;;;5.70;3.20;;;23.70;99.90;;;;;;5032319;28;20106;-48
2024/03/21 07:11:50;;;;;;;8.18;3.28;;;23.70;99.90;;;;;;5032179;28;20119;-48
2024/03/21 07:14:16;;;;;;;6.10;2.97;;;23.70;99.90;;;;;;5032110;28;20096;-48
2024/03/21 07:16:43;;;;;;;9.80;3.95;;;23.70;99.90;;;;;;5032032;28;20029;-48
2024/03/21 07:19:08;;;;;;;5.95;3.55;;;23.70;99.90;;;;;;5032245;28;20424;-47
2024/03/21 07:21:34;;;;;;;6.07;3.03;;;23.70;99.90;;;;;;5031892;28;20056;-49
2024/03/21 07:24:00;;;;;;;5.88;3.03;;;23.70;99.90;;;;;;5032013;28;20052;-47
2024/03/21 07:26:26;;;;;;;7.93;3.10;;;23.70;99.90;;;;;;5032029;28;20060;-47
2024/03/21 07:28:51;;;;;;;5.70;3.40;;;23.70;99.90;;;;;;5032007;28;20030;-47
2024/03/21 07:31:17;;;;;;;7.07;3.22;;;23.70;99.90;;;;;;5032104;28;20060;-47
2024/03/21 07:33:45;;;;;;;10.95;3.42;;;23.70;99.90;;;;;;5014550;28;20022;-47
2024/03/21 07:36:11;;;;;;;3.72;2.70;;;23.70;99.90;;;;;;5031822;28;20038;-47
2024/03/21 07:38:37;;;;;;;5.15;2.75;;;23.70;99.90;;;;;;5032279;28;20423;-47
2024/03/21 07:41:03;;;;;;;6.72;2.88;;;23.70;99.90;;;;;;5035905;28;20381;-47
2024/03/21 07:43:29;;;;;;;6.13;2.92;;;23.70;99.90;;;;;;5035916;28;20079;-47
2024/03/21 07:45:54;;;;;;;5.47;3.20;;;23.70;99.90;;;;;;5018293;28;20096;-47
2024/03/21 07:48:21;;;;;;;4.78;3.40;;;23.70;99.90;;;;;;5035765;28;20028;-47
2024/03/21 07:50:47;;;;;;;5.53;3.20;;;23.70;99.90;;;;;;5035744;28;20025;-47
2024/03/21 07:53:13;;;;;;;6.07;3.20;;;23.80;99.90;;;;;;5035836;28;20101;-46
2024/03/21 07:55:39;;;;;;;4.78;3.28;;;23.80;99.90;;;;;;5035764;28;20092;-47
2024/03/21 07:58:05;;;;;;;5.22;3.10;;;23.80;99.90;;;;;;5035606;28;20025;-46
2024/03/21 08:00:31;;;;;;;5.97;3.05;;;23.70;99.90;;;;;;5035395;28;20028;-46
2024/03/21 08:02:57;;;;;;;5.47;3.20;;;23.80;99.90;;;;;;5035681;28;20053;-46
2024/03/21 08:05:23;;;;;;;4.75;2.88;;;23.80;99.90;;;;;;5017866;28;20437;-46
2024/03/21 08:07:49;;;;;;;6.93;2.72;;;23.80;99.90;;;;;;5035781;28;20083;-46
2024/03/21 08:10:15;;;;;;;6.57;3.35;;;23.80;99.90;;;;;;5017856;28;20465;-46
2024/03/21 08:12:41;;;;;;;5.30;3.05;;;23.80;99.90;;;;;;5035637;28;20373;-46
2024/03/21 08:15:08;;;;;;;7.90;3.00;;;23.80;99.90;;;;;;5035251;28;20037;-46
2024/03/21 08:17:34;;;;;;;8.43;3.17;;;23.80;99.90;;;;;;5035325;28;20025;-46
2024/03/21 08:20:01;;;;;;;5.15;3.08;;;23.80;99.90;;;;;;5033849;28;20132;-47
2024/03/21 08:22:27;;;;;;;6.65;3.17;;;23.80;99.90;;;;;;5035344;28;20014;-47
2024/03/21 08:24:53;;;;;;;7.47;3.10;;;23.80;99.90;;;;;;5035323;28;20033;-47
2024/03/21 08:27:19;;;;;;;6.75;3.80;;;23.90;99.90;;;;;;5035108;28;20032;-47
2024/03/21 08:29:49;;;;;;;7.25;2.92;;;23.80;99.90;;;;;;5035125;28;20025;-47
2024/03/21 08:32:15;;;;;;;7.07;3.42;;;23.80;99.90;;;;;;5035088;28;20036;-46
2024/03/21 08:34:41;;;;;;;4.57;3.15;;;23.80;99.90;;;;;;5035073;28;20033;-47
2024/03/21 08:37:07;;;;;;;8.02;2.75;;;23.90;99.90;;;;;;5034946;28;20032;-47
2024/03/21 08:39:32;;;;;;;5.68;3.28;;;23.90;99.90;;;;;;5034950;28;20035;-47
2024/03/21 08:41:58;;;;;;;7.35;3.15;;;23.90;99.90;;;;;;5035010;28;20026;-47
2024/03/21 08:44:24;;;;;;;6.78;3.08;;;23.90;99.90;;;;;;5034844;28;20021;-46
2024/03/21 08:46:50;;;;;;;7.28;3.05;;;23.90;99.90;;;;;;5035385;28;20484;-47
2024/03/21 08:49:15;;;;;;;6.38;2.70;;;23.90;99.90;;;;;;5034829;28;20021;-47
2024/03/21 08:51:41;;;;;;;5.93;3.17;;;23.90;99.90;;;;;;5034051;28;20061;-46
2024/03/21 08:54:08;;;;;;;4.57;2.95;;;23.90;99.90;;;;;;5034604;28;20887;-46
2024/03/21 08:56:34;;;;;;;5.93;2.85;;;23.90;99.90;;;;;;5034623;28;20034;-47
2024/03/21 08:59:01;;;;;;;6.43;2.72;;;23.90;99.90;;;;;;5034688;28;20029;-47
2024/03/21 09:01:27;;;;;;;8.40;3.30;;;23.90;99.90;;;;;;5034328;28;20107;-47
2024/03/21 09:03:52;;;;;;;7.03;2.75;;;23.90;99.90;;;;;;5034405;28;20026;-47
2024/03/21 09:06:21;;;;;;;8.60;2.85;;;24.00;99.90;;;;;;5034311;28;20370;-46
2024/03/21 09:08:47;;;;;;;4.63;2.92;;;23.90;99.90;;;;;;5034442;28;20490;-46
2024/03/21 09:11:13;;;;;;;6.90;3.38;;;24.00;99.90;;;;;;5034487;28;20029;-47
2024/03/21 09:13:38;;;;;;;6.40;3.10;;;24.00;99.90;;;;;;5034217;28;20025;-47
2024/03/21 09:16:07;;;;;;;4.05;2.45;;;24.00;99.90;;;;;;5034305;28;20048;-46
2024/03/21 09:18:33;;;;;;;4.65;2.83;;;24.00;99.90;;;;;;5034262;28;20089;-46
2024/03/21 09:21:02;;;;;;;6.68;3.15;;;24.00;99.90;;;;;;5016541;28;20053;-47
2024/03/21 09:23:29;;;;;;;5.70;2.88;;;24.00;99.90;;;;;;5034113;28;20017;-47
2024/03/21 09:25:59;;;;;;;5.95;2.72;;;24.00;99.90;;;;;;5016448;28;20386;-46
2024/03/21 09:28:25;;;;;;;4.60;2.13;;;24.00;99.90;;;;;;5034058;28;20072;-47
2024/03/21 09:30:51;;;;;;;7.03;2.95;;;24.00;99.90;;;;;;5016158;28;20053;-47
2024/03/21 09:33:17;;;;;;;6.28;3.03;;;24.00;99.90;;;;;;5033947;28;20032;-46
2024/03/21 09:35:43;;;;;;;6.57;2.50;;;24.00;99.90;;;;;;5033844;28;20034;-47
2024/03/21 09:38:09;;;;;;;5.38;2.90;;;24.00;99.90;;;;;;5033907;28;20069;-46
2024/03/21 09:40:36;;;;;;;7.72;3.00;;;24.00;99.90;;;;;;5033791;28;20363;-48
2024/03/21 09:43:04;;;;;;;8.30;2.70;;;24.00;99.90;;;;;;5033872;28;20017;-47
2024/03/21 09:45:30;;;;;;;;;;;24.00;99.90;;;;;;5034152;28;20037;-47
2024/03/21 09:47:56;;;;;;;5.18;2.80;;;24.10;99.90;;;;;;5033635;28;20427;-47
2024/03/21 09:50:23;;;;;;;4.72;2.53;;;24.10;99.90;;;;;;5033553;28;20353;-47
2024/03/21 09:52:49;;;;;;;6.10;2.58;;;24.10;99.90;;;;;;5015672;28;20112;-47
2024/03/21 09:55:16;;;;;;;6.95;2.95;;;24.10;99.90;;;;;;5033616;28;20103;-46
2024/03/21 09:57:42;;;;;;;6.25;2.55;;;24.00;99.90;;;;;;5032083;28;20377;-46
2024/03/21 10:00:15;;;;;;;4.28;2.15;;;24.10;99.90;;;;;;5033404;28;20116;-46
2024/03/21 10:02:43;;;;;;;5.97;2.40;;;24.10;99.90;;;;;;5033144;28;20037;-47
2024/03/21 10:05:10;;;;;;;4.40;2.83;;;24.10;99.90;;;;;;5033215;28;20033;-47
2024/03/21 10:07:39;;;;;;;3.55;2.55;;;24.10;99.90;;;;;;5031822;28;20040;-47
2024/03/21 10:10:05;;;;;;;10.65;2.75;;;24.10;99.90;;;;;;5033123;28;20026;-46
2024/03/21 10:12:31;;;;;;;6.88;3.33;;;24.00;99.90;;;;;;5032913;28;20017;-47
2024/03/21 10:14:57;;;;;;;5.88;2.13;;;24.10;99.90;;;;;;5033026;28;20493;-47
2024/03/21 10:17:24;;;;;;;9.20;2.97;;;24.00;99.90;;;;;;5032952;28;20022;-46
2024/03/21 10:19:50;;;;;;;5.32;3.08;;;24.00;99.90;;;;;;5032792;28;20487;-46
2024/03/21 10:22:23;;;;;;;5.00;2.67;;;24.00;99.90;;;;;;5033128;28;20022;-46
2024/03/21 10:24:52;;;;;;;7.63;3.03;;;24.00;99.90;;;;;;5033076;28;20033;-47
2024/03/21 10:27:19;;;;;;;6.25;2.85;;;24.00;99.90;;;;;;5033059;28;20507;-48
2024/03/21 10:29:45;;;;;;;5.82;2.60;;;24.10;99.90;;;;;;5032805;28;20033;-47
2024/03/21 10:32:19;;;;;;;6.03;2.93;;;24.00;99.90;;;;;;5032790;28;20053;-47
2024/03/21 10:34:49;;;;;;;6.68;3.35;;;24.00;99.90;;;;;;5032581;28;20547;-47
2024/03/21 10:37:16;;;;;;;5.05;3.17;;;24.00;99.90;;;;;;5033210;28;20477;-47
2024/03/21 10:39:42;;;;;;;5.85;2.85;;;24.00;99.90;;;;;;5032520;28;20032;-47
2024/03/21 10:42:17;;;;;;;7.07;2.75;;;24.10;99.90;;;;;;5032435;28;20029;-47
2024/03/21 10:44:44;;;;;;;7.85;2.85;;;24.10;99.90;;;;;;5032404;28;20026;-47
2024/03/21 10:47:11;;;;;;;5.88;2.38;;;24.10;99.90;;;;;;5032651;28;20543;-47
2024/03/21 10:49:37;;;;;;;6.30;3.37;;;24.10;99.90;;;;;;5014712;28;20026;-47
2024/03/21 10:52:05;;;;;;;7.82;4.00;;;24.10;99.90;;;;;;5032284;28;20087;-48
2024/03/21 10:54:38;;;;;;;9.35;3.50;;;24.10;99.90;;;;;;5032386;28;20033;-47
2024/03/21 10:57:17;;;;;;;8.73;3.72;;;24.10;99.90;;;;;;5032287;28;20029;-47
2024/03/21 10:59:44;;;;;;;8.70;4.05;;;24.10;99.90;;;;;;5032269;28;20025;-47
2024/03/21 11:02:14;;;;;;;9.55;4.85;;;24.10;99.90;;;;;;5032023;28;20053;-46
2024/03/21 11:04:42;;;;;;;8.63;4.93;;;24.10;99.90;;;;;;5032072;28;20104;-46
2024/03/21 11:07:17;;;;;;;10.32;3.80;;;24.10;99.90;;;;;;5031998;28;20021;-48
2024/03/21 11:09:47;;;;;;;8.38;4.57;;;24.10;99.90;;;;;;5032394;28;20036;-48
2024/03/21 11:12:14;;;;;;;12.52;4.75;;;24.10;99.90;;;;;;5032080;28;20017;-48
2024/03/21 11:14:43;;;;;;;10.77;4.20;;;24.10;99.90;;;;;;5014034;28;20069;-47
2024/03/21 11:17:10;;;;;;;10.90;4.47;;;24.10;99.90;;;;;;5031846;28;20041;-47
2024/03/21 11:19:36;;;;;;;10.60;3.90;;;24.10;99.90;;;;;;5033156;28;20029;-49
2024/03/21 11:22:03;;;;;;;7.00;4.07;;;24.10;99.90;;;;;;5048290;28;20506;-47
2024/03/21 11:24:29;;;;;;;7.43;4.22;;;24.10;99.90;;;;;;5043001;28;20020;-48
2024/03/21 11:26:55;;;;;;;8.75;3.85;;;24.10;99.90;;;;;;5051985;28;20037;-48
2024/03/21 11:29:21;;;;;;;16.95;5.00;;;24.10;99.90;;;;;;5052033;28;20021;-48
2024/03/21 11:31:48;;;;;;;8.82;3.90;;;24.00;99.90;;;;;;5035934;28;20118;-48
2024/03/21 11:34:14;;;;;;;16.23;4.57;;;24.10;99.90;;;;;;5031793;28;20493;-48
2024/03/21 11:36:41;;;;;;;6.97;4.23;;;24.10;99.90;;;;;;5031947;28;20029;-48
2024/03/21 11:39:14;;;;;;;9.65;4.72;;;24.10;99.90;;;;;;5014338;28;20349;-48
2024/03/21 11:41:39;;;;;;;11.10;4.05;;;24.10;99.90;;;;;;5031849;28;20036;-48
2024/03/21 11:44:11;;;;;;;7.22;3.72;;;24.10;99.90;;;;;;5031713;28;20022;-48
2024/03/21 11:46:38;;;;;;;9.45;3.60;;;24.10;99.90;;;;;;5031929;28;20101;-48
2024/03/21 11:49:14;;;;;;;14.50;4.60;;;24.10;99.90;;;;;;5031891;28;20446;-48
2024/03/21 11:51:40;;;;;;;15.68;4.53;;;24.10;99.90;;;;;;5031868;28;20100;-48
2024/03/21 11:54:09;;;;;;;10.30;4.43;;;24.10;99.90;;;;;;5013861;28;20446;-48
2024/03/21 11:56:37;;;;;;;9.40;4.78;;;24.10;99.90;;;;;;5031551;28;20030;-48
2024/03/21 11:59:04;;;;;;;9.10;4.68;;;24.10;99.90;;;;;;5031636;28;20100;-48
2024/03/21 12:01:30;;;;;;;11.03;4.77;;;24.10;99.90;;;;;;5013760;28;20049;-48
2024/03/21 12:03:56;;;;;;;16.80;4.90;;;24.10;99.90;;;;;;5031706;28;20022;-47
2024/03/21 12:06:22;;;;;;;15.07;6.47;;;24.10;99.90;;;;;;5031959;28;20091;-47
2024/03/21 12:08:50;;;;;;;8.40;4.30;;;24.10;99.90;;;;;;5013823;28;20026;-48
2024/03/21 12:11:18;;;;;;;15.15;5.85;;;24.10;99.90;;;;;;5031643;28;20037;-48
2024/03/21 12:13:45;;;;;;;11.63;5.05;;;24.10;99.90;;;;;;5031458;28;20022;-48
2024/03/21 12:16:18;;;;;;;10.45;4.53;;;24.10;99.90;;;;;;5031491;28;20485;-48
2024/03/21 12:18:45;;;;;;;16.50;5.70;;;24.10;99.90;;;;;;5031198;28;20022;-48
2024/03/21 12:21:19;;;;;;;18.63;5.57;;;24.10;99.90;;;;;;5013799;28;20112;-48
2024/03/21 12:23:46;;;;;;;16.10;5.35;;;24.10;99.90;;;;;;5013533;28;20029;-48
2024/03/21 12:26:13;;;;;;;12.98;5.50;;;24.10;99.90;;;;;;5032371;28;20021;-49
2024/03/21 12:28:39;;;;;;;16.80;6.30;;;24.10;99.90;;;;;;5035044;28;20049;-48
2024/03/21 12:31:10;;;;;;;20.25;6.80;;;24.10;99.90;;;;;;5036019;28;20024;-47
2024/03/21 12:33:36;;;;;;;19.85;6.57;;;24.10;99.90;;;;;;5043230;28;20024;-48
2024/03/21 12:36:02;;;;;;;17.80;6.45;;;24.20;99.90;;;;;;5050252;28;20404;-46
2024/03/21 12:38:30;;;;;;;16.25;7.10;;;24.20;99.90;;;;;;5054668;28;20426;-47
2024/03/21 12:41:01;;;;;;;18.45;6.75;;;24.20;99.90;;;;;;5054841;28;20465;-47
2024/03/21 12:43:27;;;;;;;17.02;6.43;;;24.20;99.90;;;;;;5054837;28;20057;-48
2024/03/21 12:45:55;;;;;;;13.13;6.22;;;24.20;99.90;;;;;;5045265;28;20021;-46